Ukiah, CA

9:14 AM PDT on August 29, 2014 (GMT -0700)
Petaluma | Change Station
CLOSE
Current Station
Airport
Location: Petaluma,
Elevation: 89 ft
Nearby Weather Stations

Elev 89 ft 38.26 °N, 122.61 °W | Updated 3 days ago

Partly Cloudy
Partly Cloudy
79 °F
Feels Like 79 °F
N
7
Wind Variable Wind from WNW
Gusts 10 mph

Today
High -- | Low -- °F
--% Chance of Precip.
Yesterday
High -- | Low -- °F
Precip. -- in
6:38 AM 7:47 PM
Waxing Crescent, 15% visible
Pressure 29.99 in
Visibility 10.0 miles
Clouds Overcast 1200 ft
Dew Point 52 °F
Humidity 36%
Rainfall 0.00 in
Snow Depth Not available.
UV 0 out of 12
Pollen 9.10 out of 12
Air Quality Not available.
Flu Activity Not available.
METAR KO69 261030Z AUTO 31003KT 10SM OVC012 15/13 A2999 RMK AO1

More Conditions Fewer Conditions

Pressure 29.99 in
Visibility 10.0 miles
Clouds Overcast 1200 ft
Dew Point 52 °F
Humidity 36%
Rainfall 0.00 in
Snow Depth Not available.
UV 0 out of 12
Pollen 9.10 out of 12
Air Quality Not available.
Flu Activity Not available.
METAR KO69 261030Z AUTO 31003KT 10SM OVC012 15/13 A2999 RMK AO1

More Conditions Fewer Conditions

10-Day Weather Forecast

Almanac

Astronomy

Aug. 29, 2014 Rise Set
Actual Time 6:38 AM PDT 7:47 PM PDT
Civil Twilight 6:11 AM PDT 8:15 PM PDT
Nautical Twilight 5:38 AM PDT 8:48 PM PDT
Astronomical Twilight 5:03 AM PDT 9:22 PM PDT
Moon 10:31 AM PDT 9:50 PM PDT
Length of Visible Light 14h 04m
Length of Day
13h 08m
Tomorrow will be 2m 26s shorter.
Waxing Crescent, 15% of the Moon is Illuminated
Today
Waxing Crescent
Sep 2
First Quarter
Sep 8
Full
Sep 15
Last Quarter
Sep 24
New

Today's Extremes

State Highs State Lows

Community

WunderPhotos

Upload Photos

1,748,275 photos uploaded!

Nearby

Snow Depth

Station Depth Elevation
CSS Lab 2 in 6900 ft
Independence Creek 0 in 6500 ft
Tahoe City Cross 0 in 6750 ft
Rubicon #2 0 in 7500 ft
Echo Peak 1 in 7800 ft

Earthquake Activity

City Distance Mag. Time & Date
Napa, California 78 miles 2.6 11:57 AM PDT
2014-08-27
The Geysers, California 31 miles 2.6 7:42 AM PDT
2014-08-27
Minimum magnitude displayed is 2.5.

Coastal Water Temperatures

Place Temperature
Arena Cove, CA 57.9 °F
North Spit, CA 59.0 °F
Point Reyes, CA 63.0 °F
San Francisco, CA 64.9 °F
Richmond, CA 66.9 °F

Nearby Weather Stations